Terminal Aerodrome Forecast
Issued by NWS

Home | Current Version | Previous Version | Text Only | Print | Product List | Glossary On
Versions: 1 2 3 4 5 6 7 8 9 10 11 12 13 14 15 16 17 18 19 20 21 22 23 24 25 26 27 28 29
798
FTUS41 KOKX 041733
TAFHPN
TAF
KHPN 041733Z 0418/0518 32010KT P6SM SCT250
     FM042200 34004KT P6SM BKN250
     FM050000 VRB02KT P6SM FEW150 BKN250
     FM050700 VRB02KT 4SM -RASN BKN040 BKN080
     FM051000 13004KT 4SM -RA BKN015
     FM051500 22007KT 5SM BR BKN015
      AMD NOT SKED=

USA.gov is the U.S. government's official web portal to all federal, state and local government web resources and services.